Aviation Digital Data Service (ADDS)

Output produced by METARs form (1331 UTC 06 July 2015)
found at http://aviationweather.gov/adds/metars/
 
KBGR 061123Z 0612/0712 20005KT P6SM SKC 
     FM061800 20006KT P6SM SKC 
     FM070700 19004KT 3SM BR SKC 
     FM070900 16005KT 3/4SM BR SCT003